Time;durP1;ratioP1;P1;durP2;ratioP2;P2;SDS_P1;SDS_P2;PMS_P1;PMS_P2;Temp;Humidity;BMP_temperature;BMP_pressure;BME280_temperature;BME280_humidity;BME280_pressure;Samples;Min_cycle;Max_cycle;Signal;HPM_P1;HPM_P2
2023/04/29 00:00:00;;;;;;;10.02;5.53;;;21.00;55.10;;;;;;5016537;28;20036;-73
2023/04/29 00:02:27;;;;;;;12.55;5.45;;;21.00;54.70;;;;;;5034368;28;20083;-73
2023/04/29 00:04:53;;;;;;;15.85;5.70;;;21.00;55.20;;;;;;5034284;28;20480;-73
2023/04/29 00:07:19;;;;;;;14.60;5.45;;;21.00;55.40;;;;;;5051551;28;20394;-72
2023/04/29 00:09:45;;;;;;;12.65;6.03;;;21.00;55.20;;;;;;5034216;28;20528;-72
2023/04/29 00:12:10;;;;;;;21.40;5.43;;;21.00;55.10;;;;;;5051916;28;20024;-72
2023/04/29 00:14:36;;;;;;;13.43;5.65;;;20.90;55.10;;;;;;5051752;28;20025;-72
2023/04/29 00:17:02;;;;;;;17.77;5.13;;;20.90;55.50;;;;;;5051614;28;20036;-72
2023/04/29 00:19:28;;;;;;;12.20;5.10;;;20.90;55.20;;;;;;5051788;28;20048;-72
2023/04/29 00:21:54;;;;;;;9.43;5.13;;;20.90;55.30;;;;;;5051926;28;20029;-72
2023/04/29 00:24:20;;;;;;;29.35;5.28;;;20.90;55.00;;;;;;5051580;28;20550;-72
2023/04/29 00:26:46;;;;;;;14.45;4.85;;;20.90;55.00;;;;;;5050354;28;20083;-72
2023/04/29 00:29:11;;;;;;;12.38;5.18;;;20.90;55.40;;;;;;5033801;28;20100;-72
2023/04/29 00:31:37;;;;;;;13.68;5.28;;;20.90;55.60;;;;;;5033883;28;20032;-72
2023/04/29 00:34:03;;;;;;;16.85;5.22;;;20.90;55.60;;;;;;5033732;28;20020;-72
2023/04/29 00:36:30;;;;;;;10.70;5.28;;;20.90;55.50;;;;;;5051282;28;20391;-72
2023/04/29 00:38:57;;;;;;;12.13;4.85;;;20.90;55.40;;;;;;5033585;28;20029;-72
2023/04/29 00:41:23;;;;;;;10.88;5.20;;;20.90;55.60;;;;;;5051077;28;20036;-72
2023/04/29 00:43:49;;;;;;;9.68;5.00;;;20.90;55.20;;;;;;5051343;28;20037;-72
2023/04/29 00:46:15;;;;;;;9.90;4.97;;;20.90;55.70;;;;;;5033191;28;20479;-72
2023/04/29 00:48:41;;;;;;;11.18;4.97;;;20.90;55.40;;;;;;5000282;28;20032;-72
2023/04/29 00:51:07;;;;;;;10.63;4.93;;;20.90;55.80;;;;;;5033333;28;20545;-72
2023/04/29 00:53:33;;;;;;;9.52;4.97;;;20.90;55.80;;;;;;5033557;28;20036;-72
2023/04/29 00:56:01;;;;;;;15.25;4.90;;;20.80;56.10;;;;;;5033212;28;20227;-72
2023/04/29 00:58:32;;;;;;;12.13;4.70;;;20.80;55.90;;;;;;5050778;28;20059;-72
2023/04/29 01:01:02;;;;;;;8.38;4.47;;;20.90;55.70;;;;;;5016373;28;20513;-72
2023/04/29 01:03:29;;;;;;;8.95;5.15;;;20.80;56.20;;;;;;5033104;28;20064;-72
2023/04/29 01:06:21;;;;;;;12.50;4.55;;;20.90;56.10;;;;;;5033100;28;20535;-72
2023/04/29 01:09:14;;;;;;;11.02;4.57;;;20.90;55.60;;;;;;5016621;28;20029;-72
2023/04/29 01:12:12;;;;;;;8.07;4.57;;;20.90;55.90;;;;;;5033026;28;20025;-72
2023/04/29 01:14:39;;;;;;;9.85;4.47;;;20.90;56.00;;;;;;5027412;28;20075;-72
2023/04/29 01:17:11;;;;;;;8.43;4.40;;;20.80;56.10;;;;;;5016305;28;20048;-73
2023/04/29 01:19:46;;;;;;;9.43;4.40;;;20.80;56.10;;;;;;5049573;28;20033;-72
2023/04/29 01:22:13;;;;;;;9.90;4.70;;;20.80;56.30;;;;;;5016661;28;20037;-72
2023/04/29 01:24:39;;;;;;;9.82;4.50;;;20.80;55.90;;;;;;5032850;28;20029;-73
2023/04/29 01:27:32;;;;;;;9.75;4.60;;;20.80;56.30;;;;;;5032765;28;20036;-73
2023/04/29 01:30:22;;;;;;;11.93;4.72;;;20.80;55.70;;;;;;5032988;28;20025;-73
2023/04/29 01:33:07;;;;;;;7.68;3.70;;;20.80;55.30;;;;;;5016681;28;20040;-73
2023/04/29 01:36:12;;;;;;;8.73;4.00;;;20.80;55.40;;;;;;5033195;28;20037;-74
2023/04/29 01:38:41;;;;;;;8.45;4.30;;;20.80;55.00;;;;;;5016423;28;20029;-73
2023/04/29 01:41:22;;;;;;;11.18;4.30;;;20.80;55.10;;;;;;5032939;28;20056;-73
2023/04/29 01:43:51;;;;;;;8.98;4.43;;;20.80;55.50;;;;;;5033654;28;20368;-73
2023/04/29 01:46:20;;;;;;;8.27;4.18;;;20.80;55.20;;;;;;5049551;28;20029;-73
2023/04/29 01:48:48;;;;;;;9.52;4.05;;;20.80;55.10;;;;;;5034408;28;20063;-72
2023/04/29 01:51:14;;;;;;;13.25;4.68;;;20.80;55.00;;;;;;5049565;28;20033;-72
2023/04/29 01:53:40;;;;;;;10.50;4.45;;;20.80;55.10;;;;;;5000114;28;20025;-72
2023/04/29 01:56:09;;;;;;;7.72;3.97;;;20.80;55.40;;;;;;5048906;28;20107;-72
2023/04/29 01:59:01;;;;;;;9.85;4.55;;;20.80;55.40;;;;;;5047317;28;20107;-72
2023/04/29 02:01:42;;;;;;;9.18;4.22;;;20.90;55.60;;;;;;5017991;28;20029;-73
2023/04/29 02:04:08;;;;;;;12.82;4.13;;;20.80;55.40;;;;;;5032602;28;20048;-72
2023/04/29 02:06:35;;;;;;;6.80;3.90;;;20.80;55.50;;;;;;5032290;28;20037;-73
2023/04/29 02:09:03;;;;;;;8.48;4.32;;;20.80;55.50;;;;;;5032706;28;20033;-72
2023/04/29 02:11:30;;;;;;;10.18;4.57;;;20.80;55.50;;;;;;5016080;28;20111;-72
2023/04/29 02:13:57;;;;;;;11.48;3.90;;;20.80;55.50;;;;;;5033099;28;20029;-72
2023/04/29 02:16:22;;;;;;;7.63;4.13;;;20.80;55.20;;;;;;5032508;28;20126;-72
2023/04/29 02:18:57;;;;;;;13.57;4.18;;;20.80;55.20;;;;;;5034888;28;20137;-72
2023/04/29 02:21:23;;;;;;;8.30;4.20;;;20.80;55.30;;;;;;5032941;28;20152;-72
2023/04/29 02:23:49;;;;;;;9.23;4.25;;;20.90;55.50;;;;;;5033189;28;20029;-72
2023/04/29 02:26:15;;;;;;;7.43;4.28;;;20.80;55.10;;;;;;5033201;28;20246;-72
2023/04/29 02:28:41;;;;;;;7.50;4.03;;;20.80;55.20;;;;;;5051058;28;20061;-72
2023/04/29 02:31:07;;;;;;;7.65;3.80;;;20.80;55.50;;;;;;5032810;28;20483;-73
2023/04/29 02:33:32;;;;;;;9.68;4.15;;;20.80;55.50;;;;;;5049662;28;20021;-72
2023/04/29 02:35:58;;;;;;;7.40;4.05;;;20.80;55.50;;;;;;5050510;28;20502;-72
2023/04/29 02:38:24;;;;;;;7.82;3.92;;;20.80;55.30;;;;;;5032646;28;20040;-72
2023/04/29 02:40:50;;;;;;;7.65;4.03;;;20.80;55.50;;;;;;5032792;28;20035;-72
2023/04/29 02:43:16;;;;;;;25.95;4.50;;;20.80;55.40;;;;;;5032738;28;20493;-72
2023/04/29 02:45:44;;;;;;;9.38;3.90;;;20.80;55.60;;;;;;5049050;28;20025;-72
2023/04/29 02:48:09;;;;;;;6.07;3.92;;;20.80;55.80;;;;;;5032140;28;20112;-72
2023/04/29 02:50:35;;;;;;;6.82;3.65;;;20.80;55.50;;;;;;5035988;28;20041;-72
2023/04/29 02:53:02;;;;;;;10.52;3.92;;;20.80;55.80;;;;;;5036037;28;20028;-72
2023/04/29 02:55:28;;;;;;;7.38;3.58;;;20.80;56.00;;;;;;5036491;28;20437;-72
2023/04/29 02:57:59;;;;;;;7.97;4.10;;;20.80;55.70;;;;;;5035614;28;20040;-72
2023/04/29 03:00:24;;;;;;;6.85;3.80;;;20.80;55.80;;;;;;5053637;28;20386;-72
2023/04/29 03:02:50;;;;;;;6.03;3.70;;;20.80;56.20;;;;;;5035618;28;20029;-72
2023/04/29 03:05:16;;;;;;;5.30;3.53;;;20.80;56.20;;;;;;5053212;28;20474;-72
2023/04/29 03:07:43;;;;;;;5.53;3.20;;;20.80;56.00;;;;;;5053060;28;20024;-72
2023/04/29 03:10:09;;;;;;;7.13;3.80;;;20.80;56.30;;;;;;5035595;28;20082;-73
2023/04/29 03:12:36;;;;;;;8.68;3.83;;;20.80;56.30;;;;;;5035131;28;20036;-73
2023/04/29 03:15:02;;;;;;;6.35;3.88;;;20.80;56.40;;;;;;5035515;28;20108;-72
2023/04/29 03:17:28;;;;;;;6.82;4.18;;;20.80;55.70;;;;;;5034712;28;20394;-72
2023/04/29 03:19:54;;;;;;;10.52;3.60;;;20.70;55.70;;;;;;5052938;28;20029;-72
2023/04/29 03:22:20;;;;;;;7.35;3.70;;;20.80;56.10;;;;;;5034973;28;20057;-73
2023/04/29 03:24:47;;;;;;;8.27;3.83;;;20.80;56.40;;;;;;5035001;28;20482;-72
2023/04/29 03:27:13;;;;;;;7.43;3.70;;;20.80;56.70;;;;;;5018178;28;20036;-73
2023/04/29 03:29:39;;;;;;;8.55;3.58;;;20.80;55.60;;;;;;5035097;28;20052;-72
2023/04/29 03:32:05;;;;;;;9.38;3.80;;;20.80;55.80;;;;;;5035031;28;20478;-73
2023/04/29 03:34:31;;;;;;;6.03;3.88;;;20.80;55.70;;;;;;5051570;28;20025;-72
2023/04/29 03:37:23;;;;;;;7.15;3.92;;;20.80;55.80;;;;;;5021201;28;20041;-73
2023/04/29 03:40:01;;;;;;;6.88;3.95;;;20.80;55.90;;;;;;5034566;28;20029;-72
2023/04/29 03:42:26;;;;;;;7.75;3.47;;;20.80;55.80;;;;;;5034351;28;20029;-73
2023/04/29 03:44:52;;;;;;;6.32;3.72;;;20.80;56.00;;;;;;5034787;28;20029;-73
2023/04/29 03:47:18;;;;;;;7.13;3.83;;;20.70;56.00;;;;;;5034094;28;20040;-75
2023/04/29 03:49:45;;;;;;;7.30;3.65;;;20.80;55.80;;;;;;5034584;28;20096;-73
2023/04/29 03:52:11;;;;;;;9.55;3.55;;;20.70;56.00;;;;;;5050972;28;20478;-73
2023/04/29 03:54:38;;;;;;;7.07;3.40;;;20.80;56.40;;;;;;5051267;28;20037;-73
2023/04/29 03:57:05;;;;;;;5.57;3.50;;;20.80;56.10;;;;;;5034365;28;20036;-73
2023/04/29 03:59:30;;;;;;;7.88;3.67;;;20.80;56.10;;;;;;5051131;28;20063;-73
2023/04/29 04:01:57;;;;;;;5.70;3.80;;;20.70;56.30;;;;;;5034273;28;20108;-73
2023/04/29 04:04:23;;;;;;;9.43;3.50;;;20.80;56.10;;;;;;5050903;28;20033;-73
2023/04/29 04:06:50;;;;;;;8.95;3.80;;;20.80;56.20;;;;;;5034015;28;20028;-73
2023/04/29 04:09:18;;;;;;;6.43;3.42;;;20.80;56.80;;;;;;5050671;28;20029;-73
2023/04/29 04:11:45;;;;;;;8.40;3.78;;;20.80;56.40;;;;;;5034202;28;20029;-73
2023/04/29 04:14:12;;;;;;;5.88;3.50;;;20.80;56.00;;;;;;5034005;28;20071;-73
2023/04/29 04:16:38;;;;;;;5.70;3.40;;;20.80;56.40;;;;;;5034020;28;20040;-73
2023/04/29 04:19:04;;;;;;;7.60;3.63;;;20.80;56.10;;;;;;5033941;28;20376;-72
2023/04/29 04:21:32;;;;;;;7.15;3.60;;;20.80;56.40;;;;;;5034001;28;20488;-73
2023/04/29 04:24:04;;;;;;;6.75;3.75;;;20.70;56.20;;;;;;5050435;28;20056;-73
2023/04/29 04:26:30;;;;;;;7.75;3.70;;;20.80;56.30;;;;;;5033578;28;20033;-73
2023/04/29 04:29:10;;;;;;;6.10;3.30;;;20.80;56.10;;;;;;5034172;28;20386;-73
2023/04/29 04:31:46;;;;;;;7.35;3.97;;;20.80;56.20;;;;;;5033880;28;20509;-73
2023/04/29 04:34:13;;;;;;;14.57;4.00;;;20.70;56.10;;;;;;5050371;28;20048;-73
2023/04/29 04:36:41;;;;;;;7.43;4.10;;;20.70;56.20;;;;;;5033463;28;20108;-73
2023/04/29 04:39:07;;;;;;;6.30;3.75;;;20.80;56.10;;;;;;5033480;28;20075;-72
2023/04/29 04:41:33;;;;;;;7.68;4.05;;;20.80;56.20;;;;;;5033483;28;20346;-73
2023/04/29 04:43:59;;;;;;;8.05;3.88;;;20.80;56.00;;;;;;5033331;28;20044;-73
2023/04/29 04:46:42;;;;;;;6.68;3.50;;;20.80;56.00;;;;;;5033175;28;20040;-73
2023/04/29 04:49:13;;;;;;;7.90;4.00;;;20.80;56.10;;;;;;5050158;28;20464;-73
2023/04/29 04:51:46;;;;;;;6.68;3.88;;;20.80;55.90;;;;;;5033533;28;20029;-73
2023/04/29 04:54:12;;;;;;;5.75;3.60;;;20.80;55.90;;;;;;5050047;28;20021;-72
2023/04/29 04:56:38;;;;;;;8.57;3.70;;;20.70;56.10;;;;;;5033134;28;20048;-72
2023/04/29 04:59:06;;;;;;;8.63;3.50;;;20.80;56.10;;;;;;5050039;28;20727;-73
2023/04/29 05:01:34;;;;;;;11.05;3.95;;;20.70;56.10;;;;;;5033276;28;20056;-72
2023/04/29 05:04:01;;;;;;;7.15;3.78;;;20.80;56.40;;;;;;5049916;28;20391;-73
2023/04/29 05:06:27;;;;;;;7.22;4.00;;;20.80;56.40;;;;;;5032621;28;20358;-72
2023/04/29 05:08:54;;;;;;;5.43;3.50;;;20.80;56.20;;;;;;5016569;28;20048;-72
2023/04/29 05:11:20;;;;;;;6.95;3.47;;;20.80;56.40;;;;;;5033196;28;20075;-72
2023/04/29 05:14:00;;;;;;;5.82;3.80;;;20.70;56.30;;;;;;5032862;28;20079;-72
2023/04/29 05:16:26;;;;;;;6.53;4.00;;;20.80;56.20;;;;;;5032845;28;20028;-72
2023/04/29 05:18:53;;;;;;;8.75;4.20;;;20.80;56.10;;;;;;5033067;28;20029;-72
2023/04/29 05:21:21;;;;;;;8.82;4.40;;;20.80;56.30;;;;;;5033199;28;20033;-72
2023/04/29 05:23:47;;;;;;;5.88;3.50;;;20.80;56.20;;;;;;5049565;28;20040;-72
2023/04/29 05:26:13;;;;;;;6.68;3.60;;;20.80;56.20;;;;;;5050094;28;20029;-73
2023/04/29 05:28:40;;;;;;;6.68;3.22;;;20.80;56.30;;;;;;5049485;28;20032;-72
2023/04/29 05:31:07;;;;;;;6.30;3.70;;;20.80;56.20;;;;;;5032810;28;20025;-72
2023/04/29 05:33:33;;;;;;;7.20;3.72;;;20.80;56.20;;;;;;5049351;28;20128;-72
2023/04/29 05:35:59;;;;;;;6.90;3.83;;;20.80;56.20;;;;;;5051042;28;20032;-72
2023/04/29 05:38:27;;;;;;;9.32;4.05;;;20.80;56.40;;;;;;5049344;28;20534;-72
2023/04/29 05:41:04;;;;;;;6.30;3.35;;;20.80;56.20;;;;;;5016460;28;20525;-72
2023/04/29 05:43:41;;;;;;;6.43;3.60;;;20.80;56.30;;;;;;5073643;23;20065;-78
2023/04/29 05:46:07;;;;;;;6.28;3.60;;;20.80;56.50;;;;;;5051738;28;20060;-77
2023/04/29 05:48:33;;;;;;;7.55;4.18;;;20.80;56.40;;;;;;5052705;28;20363;-77
2023/04/29 05:50:59;;;;;;;7.40;4.13;;;20.80;56.40;;;;;;5052344;28;20032;-77
2023/04/29 05:53:25;;;;;;;7.45;3.83;;;20.80;56.30;;;;;;5036636;28;20402;-77
2023/04/29 05:55:52;;;;;;;6.32;4.35;;;20.80;56.50;;;;;;5032251;28;20270;-77
2023/04/29 05:58:20;;;;;;;5.15;3.35;;;20.80;56.60;;;;;;5032265;28;20414;-77
2023/04/29 06:00:48;;;;;;;7.75;3.95;;;20.80;56.50;;;;;;5016370;28;20033;-77
2023/04/29 06:03:18;;;;;;;6.22;3.65;;;20.80;56.60;;;;;;5032672;28;20479;-77
2023/04/29 06:05:44;;;;;;;8.55;3.97;;;20.80;56.70;;;;;;5048962;28;20051;-77
2023/04/29 06:08:43;;;;;;;4.93;3.05;;;20.80;56.60;;;;;;4994092;28;20045;-77
2023/04/29 06:11:22;;;;;;;6.57;3.72;;;20.80;56.80;;;;;;5032728;28;20020;-77
2023/04/29 06:13:47;;;;;;;6.35;3.83;;;20.80;56.50;;;;;;5049397;28;20594;-76
2023/04/29 06:16:13;;;;;;;6.82;3.90;;;20.80;56.60;;;;;;5032050;28;20036;-77
2023/04/29 06:18:40;;;;;;;7.80;3.83;;;20.80;56.60;;;;;;5049160;28;20036;-77
2023/04/29 06:21:06;;;;;;;7.80;3.85;;;20.80;56.60;;;;;;5032443;28;20036;-77
2023/04/29 06:23:32;;;;;;;7.90;4.10;;;20.80;56.50;;;;;;5049026;28;20032;-77
2023/04/29 06:26:00;;;;;;;5.28;3.42;;;20.80;56.70;;;;;;5035628;28;20040;-78
2023/04/29 06:28:26;;;;;;;6.07;3.75;;;20.80;56.70;;;;;;5052609;28;20087;-78
2023/04/29 06:30:52;;;;;;;5.85;3.80;;;20.80;56.60;;;;;;5035911;28;20025;-77
2023/04/29 06:33:19;;;;;;;7.97;4.18;;;20.80;56.90;;;;;;5052507;28;20394;-77
2023/04/29 06:35:44;;;;;;;9.05;3.53;;;20.80;56.80;;;;;;5035679;28;20028;-78
2023/04/29 06:38:37;;;;;;;5.65;3.63;;;20.80;56.90;;;;;;5050618;28;20125;-77
2023/04/29 06:41:27;;;;;;;8.55;4.00;;;20.80;56.70;;;;;;5036017;28;20487;-77
2023/04/29 06:44:04;;;;;;;6.85;3.58;;;20.80;56.60;;;;;;5052518;28;20043;-78
2023/04/29 06:46:49;;;;;;;5.68;3.53;;;20.80;56.60;;;;;;5053267;28;20098;-78
2023/04/29 06:49:35;;;;;;;5.68;3.72;;;20.80;56.60;;;;;;5042939;28;20125;-78
2023/04/29 06:52:01;;;;;;;6.10;3.70;;;20.80;56.50;;;;;;5019191;28;20455;-78
2023/04/29 06:54:27;;;;;;;6.15;3.72;;;20.80;57.10;;;;;;5052277;28;20029;-78
2023/04/29 06:56:53;;;;;;;10.35;3.80;;;20.80;56.80;;;;;;5018675;28;20035;-78
2023/04/29 06:59:19;;;;;;;6.15;3.63;;;20.80;56.60;;;;;;5035608;28;20025;-77
2023/04/29 07:01:45;;;;;;;5.75;3.60;;;20.80;56.80;;;;;;5054678;28;20099;-76
2023/04/29 07:04:11;;;;;;;4.95;3.70;;;20.80;56.60;;;;;;5036659;28;20116;-77
2023/04/29 07:06:37;;;;;;;6.70;3.38;;;20.80;56.80;;;;;;5035034;28;20033;-77
2023/04/29 07:09:06;;;;;;;6.47;3.72;;;20.80;56.80;;;;;;5053548;28;20092;-77
2023/04/29 07:11:32;;;;;;;5.88;3.63;;;20.80;56.90;;;;;;5052622;28;20021;-77
2023/04/29 07:13:58;;;;;;;12.60;3.97;;;20.80;56.80;;;;;;5052193;28;20079;-77
2023/04/29 07:16:25;;;;;;;8.07;4.00;;;20.80;56.80;;;;;;5035021;28;20040;-77
2023/04/29 07:18:51;;;;;;;4.82;2.92;;;20.80;57.10;;;;;;5051577;28;20039;-77
2023/04/29 07:21:17;;;;;;;8.93;3.60;;;20.80;57.20;;;;;;5051732;28;20108;-77
2023/04/29 07:23:43;;;;;;;6.85;3.55;;;20.80;57.10;;;;;;5052442;28;20118;-77
2023/04/29 07:26:14;;;;;;;5.97;3.60;;;20.80;56.80;;;;;;5034966;28;20029;-77
2023/04/29 07:28:43;;;;;;;8.30;3.90;;;20.80;56.80;;;;;;5051541;28;20546;-77
2023/04/29 07:31:13;;;;;;;5.38;3.42;;;20.80;57.10;;;;;;5035056;28;20032;-76
2023/04/29 07:33:39;;;;;;;6.63;3.75;;;20.80;57.00;;;;;;5034835;28;20403;-76
2023/04/29 07:36:06;;;;;;;5.65;3.50;;;20.80;57.10;;;;;;5034302;28;20029;-77
2023/04/29 07:38:33;;;;;;;5.88;3.30;;;20.80;56.90;;;;;;5034918;28;20029;-77
2023/04/29 07:40:59;;;;;;;6.85;3.90;;;20.80;57.00;;;;;;5034838;28;20082;-77
2023/04/29 07:43:25;;;;;;;6.75;3.80;;;20.90;57.10;;;;;;5051195;28;20511;-77
2023/04/29 07:45:51;;;;;;;6.60;3.50;;;20.80;57.30;;;;;;5018315;28;20029;-77
2023/04/29 07:48:17;;;;;;;7.90;3.80;;;20.80;57.20;;;;;;5034930;28;20398;-77
2023/04/29 07:50:43;;;;;;;6.70;3.72;;;20.80;57.00;;;;;;5034942;28;20108;-77
2023/04/29 07:53:09;;;;;;;6.43;3.70;;;20.80;56.90;;;;;;5034507;28;20410;-77
2023/04/29 07:55:37;;;;;;;6.63;3.53;;;20.80;57.20;;;;;;5018420;28;20418;-78
2023/04/29 07:58:03;;;;;;;7.95;3.60;;;20.90;57.20;;;;;;5050950;28;20557;-77
2023/04/29 08:00:29;;;;;;;6.18;3.72;;;20.80;57.20;;;;;;5034687;28;20108;-77
2023/04/29 08:02:56;;;;;;;8.90;3.90;;;20.80;57.10;;;;;;5018152;28;20134;-77
2023/04/29 08:05:23;;;;;;;6.15;3.50;;;20.80;57.00;;;;;;5034440;28;20394;-77
2023/04/29 08:07:50;;;;;;;5.57;3.42;;;20.80;57.20;;;;;;5052070;28;20025;-77
2023/04/29 08:10:17;;;;;;;7.03;3.90;;;20.80;57.20;;;;;;5034789;28;20044;-77
2023/04/29 08:12:48;;;;;;;8.00;3.63;;;20.80;57.10;;;;;;5034231;28;20043;-79
2023/04/29 08:15:14;;;;;;;10.02;3.63;;;20.90;57.30;;;;;;5034424;28;20025;-78
2023/04/29 08:17:41;;;;;;;21.63;3.67;;;20.90;57.60;;;;;;5033979;28;20055;-77
2023/04/29 08:20:08;;;;;;;24.92;3.88;;;20.90;58.10;;;;;;5034101;28;20037;-77
2023/04/29 08:22:34;;;;;;;10.70;3.58;;;20.90;57.50;;;;;;5052600;28;20025;-77
2023/04/29 08:25:01;;;;;;;7.97;3.65;;;20.90;57.90;;;;;;5052004;28;20031;-78
2023/04/29 08:27:28;;;;;;;10.75;3.53;;;20.90;57.20;;;;;;5050379;28;20059;-77
2023/04/29 08:29:54;;;;;;;10.85;4.03;;;20.90;57.30;;;;;;5051912;28;20486;-64
2023/04/29 08:32:21;;;;;;;8.60;4.28;;;20.90;57.80;;;;;;5034097;28;20041;-64
2023/04/29 08:34:47;;;;;;;10.60;5.00;;;20.90;58.60;;;;;;5033757;28;20096;-64
2023/04/29 08:37:14;;;;;;;17.80;5.00;;;20.80;58.20;;;;;;5051516;28;20512;-64
2023/04/29 08:39:42;;;;;;;9.05;5.32;;;20.80;59.00;;;;;;5051364;28;20028;-63
2023/04/29 08:42:09;;;;;;;11.30;5.30;;;20.80;58.40;;;;;;5033687;28;20446;-75
2023/04/29 08:44:35;;;;;;;19.98;6.00;;;20.70;57.00;;;;;;5033548;28;20025;-76
2023/04/29 08:47:02;;;;;;;13.20;6.75;;;20.80;58.10;;;;;;5050204;28;20032;-77
2023/04/29 08:49:28;;;;;;;9.60;4.70;;;20.90;59.70;;;;;;5050145;28;20060;-76
2023/04/29 08:51:54;;;;;;;17.80;6.53;;;20.90;57.30;;;;;;5051482;28;20043;-79
2023/04/29 08:54:23;;;;;;;11.27;6.10;;;20.90;59.80;;;;;;5051190;28;20497;-76
2023/04/29 08:56:51;;;;;;;21.10;5.82;;;20.90;59.30;;;;;;5050951;28;20267;-74
2023/04/29 08:59:18;;;;;;;15.88;5.57;;;20.90;59.60;;;;;;5051148;28;20067;-75
2023/04/29 09:01:50;;;;;;;16.17;4.63;;;20.90;58.90;;;;;;5016984;28;20040;-73
2023/04/29 09:04:32;;;;;;;13.50;5.03;;;21.00;59.00;;;;;;5051298;28;20040;-70
2023/04/29 09:06:58;;;;;;;10.43;4.97;;;20.90;59.20;;;;;;5016449;28;20041;-76
2023/04/29 09:09:25;;;;;;;21.77;5.82;;;20.90;58.80;;;;;;5051184;28;20058;-73
2023/04/29 09:11:51;;;;;;;18.73;5.22;;;20.90;58.20;;;;;;5049966;28;20021;-72
2023/04/29 09:14:18;;;;;;;12.02;5.10;;;20.90;58.20;;;;;;5050815;28;20017;-72
2023/04/29 09:16:47;;;;;;;9.98;4.93;;;20.90;57.00;;;;;;5033126;28;20057;-72
2023/04/29 09:19:43;;;;;;;10.37;5.37;;;20.90;57.10;;;;;;5051161;28;20398;-72
2023/04/29 09:22:10;;;;;;;8.18;4.25;;;20.80;57.20;;;;;;5034114;28;20037;-71
2023/04/29 09:24:37;;;;;;;14.07;4.50;;;20.90;57.90;;;;;;5050850;28;20032;-72
2023/04/29 09:27:03;;;;;;;9.00;4.15;;;20.90;57.30;;;;;;5032579;28;20399;-72
2023/04/29 09:29:31;;;;;;;8.98;4.18;;;20.90;57.30;;;;;;5050441;28;20102;-71
2023/04/29 09:31:57;;;;;;;14.95;4.20;;;20.90;58.00;;;;;;5032882;28;20037;-72
